aviador You're here:

UHMM Decoded Metar

MAGADAN in RUSSIA
Report Time2018-06-23 05:30:00
UTC Time2018-06-23 06:00:25
Flight Rules vfr VFR
Wind130° at 10 kt
W.Decomp.*RWY 10: 7.7 kt HW 6.4 kt RCW
W.Rank130° ranks 23
Current wind is above 130° avg. (4.5)
Visibility9999 m
Phenomena:N/A
Clouds:Few 046 Hf
Expected CloudBase > 6,800 ft AGL from Temp-Dew spread
CeilingNone
Temp24°C (ISA +10)
Dew Point07°C (34% RH)
AAT19.7°C
QNH1005 hPa
Density Alt1,929 ft
Elevation387 ft
Report Wrong Elevation
Raw Report
METAR UHMM 230530Z 13005MPS 050V180 9999 FEW046 24/07 Q1005 R10/70D
NOSIG RMK QFE739=

Extra information for UHMM:More info

Metar Taf Metar & Taf Last 4 Metars F.Rules Stats Wind Profile Meteogram Temp Stats Airport Information Weather charts Add Link Nearby VenuesMetar ALERT Operation Metar Decoded Social comments